sensor_id;sensor_type;location;lat;lon;timestamp;P1;durP1;ratioP1;P2;durP2;ratioP2
80725;SDS011;70113;59.928;10.878;2024-01-10T00:01:22;0.57;;;0.30;;
80725;SDS011;70113;59.928;10.878;2024-01-10T00:03:52;0.57;;;0.40;;
80725;SDS011;70113;59.928;10.878;2024-01-10T00:06:18;1.27;;;0.55;;
80725;SDS011;70113;59.928;10.878;2024-01-10T00:08:43;2.00;;;0.50;;
80725;SDS011;70113;59.928;10.878;2024-01-10T00:11:09;1.25;;;0.47;;
80725;SDS011;70113;59.928;10.878;2024-01-10T00:13:35;1.55;;;0.40;;
80725;SDS011;70113;59.928;10.878;2024-01-10T00:16:01;1.55;;;0.55;;
80725;SDS011;70113;59.928;10.878;2024-01-10T00:18:26;1.70;;;0.40;;
80725;SDS011;70113;59.928;10.878;2024-01-10T00:20:52;0.80;;;0.40;;
80725;SDS011;70113;59.928;10.878;2024-01-10T00:23:21;0.80;;;0.40;;
80725;SDS011;70113;59.928;10.878;2024-01-10T00:25:47;0.85;;;0.30;;
80725;SDS011;70113;59.928;10.878;2024-01-10T00:28:13;0.75;;;0.30;;
80725;SDS011;70113;59.928;10.878;2024-01-10T00:30:39;0.70;;;0.35;;
80725;SDS011;70113;59.928;10.878;2024-01-10T00:33:05;1.20;;;0.30;;
80725;SDS011;70113;59.928;10.878;2024-01-10T00:35:31;1.08;;;0.38;;
80725;SDS011;70113;59.928;10.878;2024-01-10T01:03:43;1.33;;;0.40;;
80725;SDS011;70113;59.928;10.878;2024-01-10T01:06:09;1.02;;;0.32;;
80725;SDS011;70113;59.928;10.878;2024-01-10T01:08:35;1.33;;;0.43;;
80725;SDS011;70113;59.928;10.878;2024-01-10T01:11:00;1.00;;;0.47;;
80725;SDS011;70113;59.928;10.878;2024-01-10T01:13:26;2.92;;;0.52;;
80725;SDS011;70113;59.928;10.878;2024-01-10T01:15:51;2.65;;;0.50;;
80725;SDS011;70113;59.928;10.878;2024-01-10T01:18:17;0.93;;;0.30;;
80725;SDS011;70113;59.928;10.878;2024-01-10T01:20:44;2.80;;;0.80;;
80725;SDS011;70113;59.928;10.878;2024-01-10T01:23:10;2.58;;;0.90;;
80725;SDS011;70113;59.928;10.878;2024-01-10T01:25:35;2.47;;;0.90;;
80725;SDS011;70113;59.928;10.878;2024-01-10T01:28:01;2.17;;;1.02;;
80725;SDS011;70113;59.928;10.878;2024-01-10T01:30:27;3.83;;;1.58;;
80725;SDS011;70113;59.928;10.878;2024-01-10T01:32:52;4.35;;;1.65;;
80725;SDS011;70113;59.928;10.878;2024-01-10T01:35:18;5.32;;;1.65;;
80725;SDS011;70113;59.928;10.878;2024-01-10T01:37:47;4.15;;;1.58;;
80725;SDS011;70113;59.928;10.878;2024-01-10T01:40:12;3.60;;;1.10;;
80725;SDS011;70113;59.928;10.878;2024-01-10T01:42:38;1.70;;;0.75;;
80725;SDS011;70113;59.928;10.878;2024-01-10T01:45:04;2.17;;;0.70;;
80725;SDS011;70113;59.928;10.878;2024-01-10T01:47:30;1.15;;;0.50;;
80725;SDS011;70113;59.928;10.878;2024-01-10T01:49:56;1.98;;;0.55;;
80725;SDS011;70113;59.928;10.878;2024-01-10T01:52:21;0.70;;;0.40;;
80725;SDS011;70113;59.928;10.878;2024-01-10T01:54:47;1.58;;;0.35;;
80725;SDS011;70113;59.928;10.878;2024-01-10T01:57:13;1.65;;;0.40;;
80725;SDS011;70113;59.928;10.878;2024-01-10T01:59:39;1.30;;;0.50;;
80725;SDS011;70113;59.928;10.878;2024-01-10T02:02:05;1.45;;;0.50;;
80725;SDS011;70113;59.928;10.878;2024-01-10T02:04:31;2.05;;;0.70;;
80725;SDS011;70113;59.928;10.878;2024-01-10T02:06:57;1.25;;;0.60;;
80725;SDS011;70113;59.928;10.878;2024-01-10T02:09:22;1.70;;;0.60;;
80725;SDS011;70113;59.928;10.878;2024-01-10T02:11:48;1.15;;;0.50;;
80725;SDS011;70113;59.928;10.878;2024-01-10T02:14:14;1.23;;;0.50;;
80725;SDS011;70113;59.928;10.878;2024-01-10T02:16:40;2.65;;;0.60;;
80725;SDS011;70113;59.928;10.878;2024-01-10T02:19:19;1.52;;;0.65;;
80725;SDS011;70113;59.928;10.878;2024-01-10T02:21:45;2.05;;;0.93;;
80725;SDS011;70113;59.928;10.878;2024-01-10T02:24:10;0.90;;;0.50;;
80725;SDS011;70113;59.928;10.878;2024-01-10T02:26:36;1.17;;;0.50;;
80725;SDS011;70113;59.928;10.878;2024-01-10T02:29:01;1.05;;;0.52;;
80725;SDS011;70113;59.928;10.878;2024-01-10T02:31:27;2.28;;;0.80;;
80725;SDS011;70113;59.928;10.878;2024-01-10T02:33:53;1.27;;;0.57;;
80725;SDS011;70113;59.928;10.878;2024-01-10T02:36:18;0.63;;;0.50;;
80725;SDS011;70113;59.928;10.878;2024-01-10T02:38:44;2.03;;;0.52;;
80725;SDS011;70113;59.928;10.878;2024-01-10T02:41:10;1.83;;;0.77;;
80725;SDS011;70113;59.928;10.878;2024-01-10T02:43:35;1.25;;;0.40;;
80725;SDS011;70113;59.928;10.878;2024-01-10T02:46:01;0.45;;;0.40;;
80725;SDS011;70113;59.928;10.878;2024-01-10T02:48:26;1.83;;;0.60;;
80725;SDS011;70113;59.928;10.878;2024-01-10T02:50:52;1.08;;;0.55;;
80725;SDS011;70113;59.928;10.878;2024-01-10T02:53:19;1.25;;;0.50;;
80725;SDS011;70113;59.928;10.878;2024-01-10T02:55:45;1.23;;;0.63;;
80725;SDS011;70113;59.928;10.878;2024-01-10T02:58:11;1.63;;;0.63;;
80725;SDS011;70113;59.928;10.878;2024-01-10T03:00:37;2.25;;;0.70;;
80725;SDS011;70113;59.928;10.878;2024-01-10T03:03:03;2.88;;;0.63;;
80725;SDS011;70113;59.928;10.878;2024-01-10T03:05:29;3.20;;;0.80;;
80725;SDS011;70113;59.928;10.878;2024-01-10T03:07:54;2.30;;;0.70;;
80725;SDS011;70113;59.928;10.878;2024-01-10T03:10:20;1.25;;;0.70;;
80725;SDS011;70113;59.928;10.878;2024-01-10T03:12:46;2.75;;;1.35;;
80725;SDS011;70113;59.928;10.878;2024-01-10T03:15:11;2.17;;;0.70;;
80725;SDS011;70113;59.928;10.878;2024-01-10T03:17:37;2.22;;;0.90;;
80725;SDS011;70113;59.928;10.878;2024-01-10T03:20:03;1.67;;;0.70;;
80725;SDS011;70113;59.928;10.878;2024-01-10T03:22:30;2.25;;;0.73;;
80725;SDS011;70113;59.928;10.878;2024-01-10T03:24:56;1.55;;;0.70;;
80725;SDS011;70113;59.928;10.878;2024-01-10T03:27:21;2.22;;;0.73;;
80725;SDS011;70113;59.928;10.878;2024-01-10T03:29:47;1.33;;;0.70;;
80725;SDS011;70113;59.928;10.878;2024-01-10T03:32:12;2.35;;;0.70;;
80725;SDS011;70113;59.928;10.878;2024-01-10T03:34:40;1.02;;;0.65;;
80725;SDS011;70113;59.928;10.878;2024-01-10T03:37:06;1.30;;;0.60;;
80725;SDS011;70113;59.928;10.878;2024-01-10T03:39:32;1.70;;;0.60;;
80725;SDS011;70113;59.928;10.878;2024-01-10T03:41:57;0.65;;;0.40;;
80725;SDS011;70113;59.928;10.878;2024-01-10T03:44:23;0.90;;;0.50;;
80725;SDS011;70113;59.928;10.878;2024-01-10T03:46:48;0.75;;;0.40;;
80725;SDS011;70113;59.928;10.878;2024-01-10T03:49:14;1.20;;;0.50;;
80725;SDS011;70113;59.928;10.878;2024-01-10T03:51:40;1.27;;;0.52;;
80725;SDS011;70113;59.928;10.878;2024-01-10T03:54:06;1.17;;;0.40;;
80725;SDS011;70113;59.928;10.878;2024-01-10T03:56:31;1.20;;;0.40;;
80725;SDS011;70113;59.928;10.878;2024-01-10T03:58:57;0.85;;;0.40;;
80725;SDS011;70113;59.928;10.878;2024-01-10T04:01:22;0.95;;;0.32;;
80725;SDS011;70113;59.928;10.878;2024-01-10T04:03:51;0.73;;;0.32;;
80725;SDS011;70113;59.928;10.878;2024-01-10T04:06:17;0.88;;;0.40;;
80725;SDS011;70113;59.928;10.878;2024-01-10T04:08:42;0.32;;;0.30;;
80725;SDS011;70113;59.928;10.878;2024-01-10T04:11:08;0.75;;;0.35;;
80725;SDS011;70113;59.928;10.878;2024-01-10T04:13:34;0.50;;;0.20;;
80725;SDS011;70113;59.928;10.878;2024-01-10T04:16:00;1.58;;;0.55;;
80725;SDS011;70113;59.928;10.878;2024-01-10T04:18:26;0.22;;;0.20;;
80725;SDS011;70113;59.928;10.878;2024-01-10T04:20:51;0.60;;;0.40;;
80725;SDS011;70113;59.928;10.878;2024-01-10T04:23:17;0.82;;;0.30;;
80725;SDS011;70113;59.928;10.878;2024-01-10T04:25:43;0.73;;;0.30;;
80725;SDS011;70113;59.928;10.878;2024-01-10T04:28:08;0.60;;;0.30;;
80725;SDS011;70113;59.928;10.878;2024-01-10T04:30:34;1.27;;;0.40;;
80725;SDS011;70113;59.928;10.878;2024-01-10T04:33:00;1.25;;;0.60;;
80725;SDS011;70113;59.928;10.878;2024-01-10T04:35:25;1.50;;;0.70;;
80725;SDS011;70113;59.928;10.878;2024-01-10T04:37:51;2.03;;;0.88;;
80725;SDS011;70113;59.928;10.878;2024-01-10T04:40:16;3.58;;;1.50;;
80725;SDS011;70113;59.928;10.878;2024-01-10T04:42:43;1.77;;;0.98;;
80725;SDS011;70113;59.928;10.878;2024-01-10T04:45:09;2.97;;;1.10;;
80725;SDS011;70113;59.928;10.878;2024-01-10T04:47:35;6.03;;;2.78;;
80725;SDS011;70113;59.928;10.878;2024-01-10T04:50:00;18.58;;;12.80;;
80725;SDS011;70113;59.928;10.878;2024-01-10T04:52:26;9.32;;;4.55;;
80725;SDS011;70113;59.928;10.878;2024-01-10T04:54:52;7.70;;;3.55;;
80725;SDS011;70113;59.928;10.878;2024-01-10T04:57:18;4.95;;;2.50;;
80725;SDS011;70113;59.928;10.878;2024-01-10T04:59:43;4.60;;;1.90;;
80725;SDS011;70113;59.928;10.878;2024-01-10T05:02:09;5.88;;;3.28;;
80725;SDS011;70113;59.928;10.878;2024-01-10T05:04:35;5.97;;;3.15;;
80725;SDS011;70113;59.928;10.878;2024-01-10T05:07:01;7.07;;;3.35;;
80725;SDS011;70113;59.928;10.878;2024-01-10T05:09:26;7.30;;;3.22;;
80725;SDS011;70113;59.928;10.878;2024-01-10T05:11:52;4.50;;;1.80;;
80725;SDS011;70113;59.928;10.878;2024-01-10T05:14:18;2.55;;;1.20;;
80725;SDS011;70113;59.928;10.878;2024-01-10T05:16:47;2.83;;;1.20;;
80725;SDS011;70113;59.928;10.878;2024-01-10T06:16:03;2.65;;;0.80;;
80725;SDS011;70113;59.928;10.878;2024-01-10T06:18:30;1.00;;;0.47;;
80725;SDS011;70113;59.928;10.878;2024-01-10T06:20:55;1.90;;;0.50;;
80725;SDS011;70113;59.928;10.878;2024-01-10T06:23:21;1.88;;;0.68;;
80725;SDS011;70113;59.928;10.878;2024-01-10T06:25:46;1.50;;;0.60;;
80725;SDS011;70113;59.928;10.878;2024-01-10T06:28:12;1.55;;;0.65;;
80725;SDS011;70113;59.928;10.878;2024-01-10T06:30:38;6.32;;;2.92;;
80725;SDS011;70113;59.928;10.878;2024-01-10T06:33:03;3.53;;;1.63;;
80725;SDS011;70113;59.928;10.878;2024-01-10T06:35:32;5.45;;;1.35;;
80725;SDS011;70113;59.928;10.878;2024-01-10T06:37:57;2.22;;;0.90;;
80725;SDS011;70113;59.928;10.878;2024-01-10T06:40:23;1.50;;;0.73;;
80725;SDS011;70113;59.928;10.878;2024-01-10T06:42:49;1.92;;;1.00;;
80725;SDS011;70113;59.928;10.878;2024-01-10T06:45:14;2.22;;;1.20;;
80725;SDS011;70113;59.928;10.878;2024-01-10T06:47:40;5.25;;;1.60;;
80725;SDS011;70113;59.928;10.878;2024-01-10T06:50:06;4.00;;;1.70;;
80725;SDS011;70113;59.928;10.878;2024-01-10T06:52:32;8.18;;;4.72;;
80725;SDS011;70113;59.928;10.878;2024-01-10T06:54:57;6.07;;;3.90;;
80725;SDS011;70113;59.928;10.878;2024-01-10T06:57:23;8.10;;;4.50;;
80725;SDS011;70113;59.928;10.878;2024-01-10T06:59:48;7.93;;;4.53;;
80725;SDS011;70113;59.928;10.878;2024-01-10T07:02:14;9.90;;;5.60;;
80725;SDS011;70113;59.928;10.878;2024-01-10T07:04:40;14.00;;;6.85;;
80725;SDS011;70113;59.928;10.878;2024-01-10T07:07:06;14.65;;;7.40;;
80725;SDS011;70113;59.928;10.878;2024-01-10T07:09:33;9.63;;;4.35;;
80725;SDS011;70113;59.928;10.878;2024-01-10T07:11:59;13.50;;;6.57;;
80725;SDS011;70113;59.928;10.878;2024-01-10T07:14:25;14.48;;;7.55;;
80725;SDS011;70113;59.928;10.878;2024-01-10T07:16:50;12.95;;;6.38;;
80725;SDS011;70113;59.928;10.878;2024-01-10T07:19:17;11.50;;;5.10;;
80725;SDS011;70113;59.928;10.878;2024-01-10T07:21:43;15.43;;;6.32;;
80725;SDS011;70113;59.928;10.878;2024-01-10T07:24:08;11.68;;;4.70;;
80725;SDS011;70113;59.928;10.878;2024-01-10T07:26:38;25.90;;;11.27;;
80725;SDS011;70113;59.928;10.878;2024-01-10T07:29:03;20.02;;;8.55;;
80725;SDS011;70113;59.928;10.878;2024-01-10T07:31:29;15.07;;;5.75;;
80725;SDS011;70113;59.928;10.878;2024-01-10T07:33:55;13.68;;;5.45;;
80725;SDS011;70113;59.928;10.878;2024-01-10T07:36:24;18.17;;;6.10;;
80725;SDS011;70113;59.928;10.878;2024-01-10T07:38:55;17.70;;;7.53;;
80725;SDS011;70113;59.928;10.878;2024-01-10T07:41:22;20.75;;;6.82;;
80725;SDS011;70113;59.928;10.878;2024-01-10T07:43:48;30.25;;;10.35;;
80725;SDS011;70113;59.928;10.878;2024-01-10T07:46:14;35.88;;;11.20;;
80725;SDS011;70113;59.928;10.878;2024-01-10T07:48:40;32.28;;;13.38;;
80725;SDS011;70113;59.928;10.878;2024-01-10T07:51:06;20.85;;;11.32;;
80725;SDS011;70113;59.928;10.878;2024-01-10T07:53:32;20.15;;;9.85;;
80725;SDS011;70113;59.928;10.878;2024-01-10T07:56:00;17.73;;;8.52;;
80725;SDS011;70113;59.928;10.878;2024-01-10T07:58:26;8.25;;;3.28;;
80725;SDS011;70113;59.928;10.878;2024-01-10T08:00:52;12.73;;;2.20;;
80725;SDS011;70113;59.928;10.878;2024-01-10T08:03:19;6.82;;;1.42;;
80725;SDS011;70113;59.928;10.878;2024-01-10T08:05:45;2.90;;;1.00;;
80725;SDS011;70113;59.928;10.878;2024-01-10T08:08:11;14.60;;;1.83;;
80725;SDS011;70113;59.928;10.878;2024-01-10T08:10:39;9.48;;;1.30;;
80725;SDS011;70113;59.928;10.878;2024-01-10T08:13:05;5.85;;;0.93;;
80725;SDS011;70113;59.928;10.878;2024-01-10T08:15:31;11.07;;;1.00;;
80725;SDS011;70113;59.928;10.878;2024-01-10T08:17:59;4.15;;;1.08;;
80725;SDS011;70113;59.928;10.878;2024-01-10T08:20:26;5.20;;;1.20;;
80725;SDS011;70113;59.928;10.878;2024-01-10T08:22:52;3.08;;;1.27;;
80725;SDS011;70113;59.928;10.878;2024-01-10T08:25:19;7.63;;;2.92;;
80725;SDS011;70113;59.928;10.878;2024-01-10T08:27:44;6.03;;;2.15;;
80725;SDS011;70113;59.928;10.878;2024-01-10T08:30:11;4.70;;;0.93;;
80725;SDS011;70113;59.928;10.878;2024-01-10T08:32:36;3.00;;;0.90;;
80725;SDS011;70113;59.928;10.878;2024-01-10T08:35:03;2.85;;;0.90;;
80725;SDS011;70113;59.928;10.878;2024-01-10T08:37:30;2.25;;;0.95;;
80725;SDS011;70113;59.928;10.878;2024-01-10T08:39:56;3.42;;;1.00;;
80725;SDS011;70113;59.928;10.878;2024-01-10T08:42:21;1.45;;;0.70;;
80725;SDS011;70113;59.928;10.878;2024-01-10T08:44:47;2.28;;;0.88;;
80725;SDS011;70113;59.928;10.878;2024-01-10T08:47:12;2.35;;;0.93;;
80725;SDS011;70113;59.928;10.878;2024-01-10T08:49:39;1.73;;;0.80;;
80725;SDS011;70113;59.928;10.878;2024-01-10T08:52:05;5.25;;;2.20;;
80725;SDS011;70113;59.928;10.878;2024-01-10T08:54:30;3.90;;;1.73;;
80725;SDS011;70113;59.928;10.878;2024-01-10T08:56:56;5.57;;;2.10;;
80725;SDS011;70113;59.928;10.878;2024-01-10T08:59:22;5.80;;;2.35;;
80725;SDS011;70113;59.928;10.878;2024-01-10T09:01:48;5.15;;;2.03;;
80725;SDS011;70113;59.928;10.878;2024-01-10T09:04:13;4.82;;;2.63;;
80725;SDS011;70113;59.928;10.878;2024-01-10T09:06:39;8.60;;;2.83;;
80725;SDS011;70113;59.928;10.878;2024-01-10T09:09:05;11.63;;;4.50;;
80725;SDS011;70113;59.928;10.878;2024-01-10T09:11:30;5.30;;;2.30;;
80725;SDS011;70113;59.928;10.878;2024-01-10T09:13:56;8.20;;;1.55;;
80725;SDS011;70113;59.928;10.878;2024-01-10T09:16:21;4.50;;;1.60;;
80725;SDS011;70113;59.928;10.878;2024-01-10T09:18:47;4.05;;;1.27;;
80725;SDS011;70113;59.928;10.878;2024-01-10T09:21:15;5.00;;;2.15;;
80725;SDS011;70113;59.928;10.878;2024-01-10T09:23:41;4.45;;;1.30;;
80725;SDS011;70113;59.928;10.878;2024-01-10T09:26:07;4.43;;;1.42;;
80725;SDS011;70113;59.928;10.878;2024-01-10T09:28:34;3.08;;;1.23;;
80725;SDS011;70113;59.928;10.878;2024-01-10T09:30:59;2.78;;;0.90;;
80725;SDS011;70113;59.928;10.878;2024-01-10T09:33:25;1.92;;;0.82;;
80725;SDS011;70113;59.928;10.878;2024-01-10T09:35:51;2.60;;;1.08;;
80725;SDS011;70113;59.928;10.878;2024-01-10T09:38:17;3.92;;;0.90;;
80725;SDS011;70113;59.928;10.878;2024-01-10T09:40:42;2.90;;;0.90;;
80725;SDS011;70113;59.928;10.878;2024-01-10T09:43:09;2.38;;;1.00;;
80725;SDS011;70113;59.928;10.878;2024-01-10T09:45:34;3.05;;;1.02;;
80725;SDS011;70113;59.928;10.878;2024-01-10T09:48:00;2.33;;;0.80;;
80725;SDS011;70113;59.928;10.878;2024-01-10T09:50:26;2.97;;;1.35;;
80725;SDS011;70113;59.928;10.878;2024-01-10T09:53:15;5.68;;;2.45;;
80725;SDS011;70113;59.928;10.878;2024-01-10T09:55:38;8.00;;;2.75;;
80725;SDS011;70113;59.928;10.878;2024-01-10T09:58:04;7.45;;;4.50;;
80725;SDS011;70113;59.928;10.878;2024-01-10T10:00:30;9.95;;;4.80;;
80725;SDS011;70113;59.928;10.878;2024-01-10T10:02:56;9.15;;;5.28;;
80725;SDS011;70113;59.928;10.878;2024-01-10T10:05:23;8.25;;;3.97;;
80725;SDS011;70113;59.928;10.878;2024-01-10T10:07:50;10.77;;;4.05;;
80725;SDS011;70113;59.928;10.878;2024-01-10T10:10:16;13.73;;;5.95;;
80725;SDS011;70113;59.928;10.878;2024-01-10T10:12:43;12.43;;;4.80;;
80725;SDS011;70113;59.928;10.878;2024-01-10T10:15:26;7.40;;;2.95;;
80725;SDS011;70113;59.928;10.878;2024-01-10T10:17:52;3.05;;;1.35;;
80725;SDS011;70113;59.928;10.878;2024-01-10T10:20:25;2.40;;;0.90;;
80725;SDS011;70113;59.928;10.878;2024-01-10T10:22:58;2.05;;;0.73;;
80725;SDS011;70113;59.928;10.878;2024-01-10T10:25:26;1.90;;;0.75;;
80725;SDS011;70113;59.928;10.878;2024-01-10T10:27:52;3.97;;;1.15;;
80725;SDS011;70113;59.928;10.878;2024-01-10T10:30:17;3.47;;;1.23;;
80725;SDS011;70113;59.928;10.878;2024-01-10T10:32:43;8.02;;;2.75;;
80725;SDS011;70113;59.928;10.878;2024-01-10T10:35:09;14.20;;;5.72;;
80725;SDS011;70113;59.928;10.878;2024-01-10T10:37:34;13.20;;;5.63;;
80725;SDS011;70113;59.928;10.878;2024-01-10T10:40:00;13.75;;;7.07;;
80725;SDS011;70113;59.928;10.878;2024-01-10T10:42:26;13.07;;;6.25;;
80725;SDS011;70113;59.928;10.878;2024-01-10T10:44:53;11.73;;;5.43;;
80725;SDS011;70113;59.928;10.878;2024-01-10T10:47:22;10.75;;;5.18;;
80725;SDS011;70113;59.928;10.878;2024-01-10T10:49:51;11.85;;;5.38;;
80725;SDS011;70113;59.928;10.878;2024-01-10T10:52:18;16.80;;;5.40;;
80725;SDS011;70113;59.928;10.878;2024-01-10T10:54:45;20.77;;;6.43;;
80725;SDS011;70113;59.928;10.878;2024-01-10T10:57:12;19.15;;;6.32;;
80725;SDS011;70113;59.928;10.878;2024-01-10T10:59:39;21.98;;;7.35;;
80725;SDS011;70113;59.928;10.878;2024-01-10T11:02:06;23.42;;;7.50;;
80725;SDS011;70113;59.928;10.878;2024-01-10T11:04:34;18.08;;;7.18;;
80725;SDS011;70113;59.928;10.878;2024-01-10T11:07:00;12.68;;;4.55;;
80725;SDS011;70113;59.928;10.878;2024-01-10T11:09:26;11.13;;;4.53;;
80725;SDS011;70113;59.928;10.878;2024-01-10T11:12:03;6.25;;;2.65;;
80725;SDS011;70113;59.928;10.878;2024-01-10T11:14:58;5.05;;;1.63;;
80725;SDS011;70113;59.928;10.878;2024-01-10T11:25:06;3.90;;;1.70;;
80725;SDS011;70113;59.928;10.878;2024-01-10T11:27:32;4.93;;;1.55;;
80725;SDS011;70113;59.928;10.878;2024-01-10T11:29:58;4.60;;;1.65;;
80725;SDS011;70113;59.928;10.878;2024-01-10T11:32:25;7.45;;;2.95;;
80725;SDS011;70113;59.928;10.878;2024-01-10T11:34:58;5.25;;;1.92;;
80725;SDS011;70113;59.928;10.878;2024-01-10T11:37:28;6.63;;;2.55;;
80725;SDS011;70113;59.928;10.878;2024-01-10T11:39:54;5.25;;;2.30;;
80725;SDS011;70113;59.928;10.878;2024-01-10T11:42:23;4.40;;;1.70;;
80725;SDS011;70113;59.928;10.878;2024-01-10T11:44:49;4.53;;;1.70;;
80725;SDS011;70113;59.928;10.878;2024-01-10T13:47:18;1.55;;;0.77;;
80725;SDS011;70113;59.928;10.878;2024-01-10T13:49:44;2.80;;;0.90;;
80725;SDS011;70113;59.928;10.878;2024-01-10T13:52:10;1.73;;;0.77;;
80725;SDS011;70113;59.928;10.878;2024-01-10T13:54:35;2.80;;;0.90;;
80725;SDS011;70113;59.928;10.878;2024-01-10T13:57:02;2.53;;;0.70;;
80725;SDS011;70113;59.928;10.878;2024-01-10T13:59:28;2.17;;;0.80;;
80725;SDS011;70113;59.928;10.878;2024-01-10T14:01:54;3.28;;;1.10;;
80725;SDS011;70113;59.928;10.878;2024-01-10T14:04:20;2.90;;;0.93;;
80725;SDS011;70113;59.928;10.878;2024-01-10T14:06:45;1.77;;;0.90;;
80725;SDS011;70113;59.928;10.878;2024-01-10T14:09:11;1.77;;;0.80;;
80725;SDS011;70113;59.928;10.878;2024-01-10T14:11:37;2.38;;;0.98;;
80725;SDS011;70113;59.928;10.878;2024-01-10T14:14:03;2.47;;;0.60;;
80725;SDS011;70113;59.928;10.878;2024-01-10T14:16:28;1.85;;;0.73;;
80725;SDS011;70113;59.928;10.878;2024-01-10T14:18:54;1.63;;;0.70;;
80725;SDS011;70113;59.928;10.878;2024-01-10T14:21:21;1.85;;;0.90;;
80725;SDS011;70113;59.928;10.878;2024-01-10T14:23:47;1.42;;;0.50;;
80725;SDS011;70113;59.928;10.878;2024-01-10T14:26:13;2.35;;;0.70;;
80725;SDS011;70113;59.928;10.878;2024-01-10T14:28:39;2.80;;;1.10;;
80725;SDS011;70113;59.928;10.878;2024-01-10T14:31:04;2.20;;;0.80;;
80725;SDS011;70113;59.928;10.878;2024-01-10T14:33:30;2.72;;;1.00;;
80725;SDS011;70113;59.928;10.878;2024-01-10T14:35:56;1.40;;;0.80;;
80725;SDS011;70113;59.928;10.878;2024-01-10T14:38:22;2.75;;;1.25;;
80725;SDS011;70113;59.928;10.878;2024-01-10T14:40:48;2.88;;;0.90;;
80725;SDS011;70113;59.928;10.878;2024-01-10T14:43:14;2.90;;;1.23;;
80725;SDS011;70113;59.928;10.878;2024-01-10T14:45:39;2.47;;;0.90;;
80725;SDS011;70113;59.928;10.878;2024-01-10T14:48:05;3.85;;;1.35;;
80725;SDS011;70113;59.928;10.878;2024-01-10T14:50:31;3.95;;;1.80;;
80725;SDS011;70113;59.928;10.878;2024-01-10T14:52:56;3.58;;;1.58;;
80725;SDS011;70113;59.928;10.878;2024-01-10T14:55:23;5.18;;;2.30;;
80725;SDS011;70113;59.928;10.878;2024-01-10T14:57:49;4.60;;;2.42;;
80725;SDS011;70113;59.928;10.878;2024-01-10T15:00:15;5.05;;;2.53;;
80725;SDS011;70113;59.928;10.878;2024-01-10T15:02:41;6.10;;;2.75;;
80725;SDS011;70113;59.928;10.878;2024-01-10T15:05:06;7.07;;;3.03;;
80725;SDS011;70113;59.928;10.878;2024-01-10T15:07:32;7.38;;;3.25;;
80725;SDS011;70113;59.928;10.878;2024-01-10T15:09:58;6.18;;;2.75;;
80725;SDS011;70113;59.928;10.878;2024-01-10T15:12:28;6.45;;;2.78;;
80725;SDS011;70113;59.928;10.878;2024-01-10T15:14:54;9.70;;;3.80;;
80725;SDS011;70113;59.928;10.878;2024-01-10T15:17:19;10.65;;;4.53;;
80725;SDS011;70113;59.928;10.878;2024-01-10T15:19:45;18.17;;;8.23;;
80725;SDS011;70113;59.928;10.878;2024-01-10T15:22:11;9.18;;;4.38;;
80725;SDS011;70113;59.928;10.878;2024-01-10T15:24:37;9.98;;;4.47;;
80725;SDS011;70113;59.928;10.878;2024-01-10T15:27:03;6.28;;;2.97;;
80725;SDS011;70113;59.928;10.878;2024-01-10T15:29:34;26.58;;;8.50;;
80725;SDS011;70113;59.928;10.878;2024-01-10T15:31:59;36.80;;;15.80;;
80725;SDS011;70113;59.928;10.878;2024-01-10T15:34:25;47.13;;;19.55;;
80725;SDS011;70113;59.928;10.878;2024-01-10T15:36:51;50.65;;;20.83;;
80725;SDS011;70113;59.928;10.878;2024-01-10T15:39:16;59.92;;;24.20;;
80725;SDS011;70113;59.928;10.878;2024-01-10T15:41:42;62.15;;;24.30;;
80725;SDS011;70113;59.928;10.878;2024-01-10T15:44:07;26.13;;;11.15;;
80725;SDS011;70113;59.928;10.878;2024-01-10T15:46:35;20.55;;;11.75;;
80725;SDS011;70113;59.928;10.878;2024-01-10T15:49:01;17.77;;;9.02;;
80725;SDS011;70113;59.928;10.878;2024-01-10T15:51:27;15.30;;;7.90;;
80725;SDS011;70113;59.928;10.878;2024-01-10T15:53:53;17.40;;;8.20;;
80725;SDS011;70113;59.928;10.878;2024-01-10T15:56:23;12.68;;;5.90;;
80725;SDS011;70113;59.928;10.878;2024-01-10T15:58:49;7.20;;;3.58;;
80725;SDS011;70113;59.928;10.878;2024-01-10T16:01:15;7.95;;;3.60;;
80725;SDS011;70113;59.928;10.878;2024-01-10T16:03:40;6.38;;;3.42;;
80725;SDS011;70113;59.928;10.878;2024-01-10T16:06:06;4.97;;;2.80;;
80725;SDS011;70113;59.928;10.878;2024-01-10T16:08:32;6.78;;;3.45;;
80725;SDS011;70113;59.928;10.878;2024-01-10T16:10:58;8.05;;;3.13;;
80725;SDS011;70113;59.928;10.878;2024-01-10T16:13:23;9.43;;;4.97;;
80725;SDS011;70113;59.928;10.878;2024-01-10T16:15:52;10.65;;;5.30;;
80725;SDS011;70113;59.928;10.878;2024-01-10T16:18:18;6.20;;;2.85;;
80725;SDS011;70113;59.928;10.878;2024-01-10T16:20:44;6.30;;;2.95;;
80725;SDS011;70113;59.928;10.878;2024-01-10T16:23:10;11.05;;;4.68;;
80725;SDS011;70113;59.928;10.878;2024-01-10T16:25:35;9.73;;;4.07;;
80725;SDS011;70113;59.928;10.878;2024-01-10T16:28:01;6.13;;;2.50;;
80725;SDS011;70113;59.928;10.878;2024-01-10T16:30:27;4.05;;;1.60;;
80725;SDS011;70113;59.928;10.878;2024-01-10T16:32:52;6.45;;;2.70;;
80725;SDS011;70113;59.928;10.878;2024-01-10T16:35:18;5.03;;;1.85;;
80725;SDS011;70113;59.928;10.878;2024-01-10T16:37:44;3.45;;;1.17;;
80725;SDS011;70113;59.928;10.878;2024-01-10T16:40:10;2.55;;;1.10;;
80725;SDS011;70113;59.928;10.878;2024-01-10T16:42:36;3.75;;;1.40;;
80725;SDS011;70113;59.928;10.878;2024-01-10T16:45:01;3.55;;;1.30;;
80725;SDS011;70113;59.928;10.878;2024-01-10T16:47:27;3.03;;;1.08;;
80725;SDS011;70113;59.928;10.878;2024-01-10T16:49:54;7.32;;;2.40;;
80725;SDS011;70113;59.928;10.878;2024-01-10T16:52:19;5.97;;;2.70;;
80725;SDS011;70113;59.928;10.878;2024-01-10T16:54:48;9.82;;;3.55;;
80725;SDS011;70113;59.928;10.878;2024-01-10T16:57:14;11.57;;;4.22;;
80725;SDS011;70113;59.928;10.878;2024-01-10T16:59:41;16.33;;;8.18;;
80725;SDS011;70113;59.928;10.878;2024-01-10T17:02:07;22.38;;;10.25;;
80725;SDS011;70113;59.928;10.878;2024-01-10T17:04:33;11.80;;;5.15;;
80725;SDS011;70113;59.928;10.878;2024-01-10T17:06:58;14.48;;;5.40;;
80725;SDS011;70113;59.928;10.878;2024-01-10T17:09:25;11.20;;;5.40;;
80725;SDS011;70113;59.928;10.878;2024-01-10T17:11:50;13.25;;;5.20;;
80725;SDS011;70113;59.928;10.878;2024-01-10T17:14:16;8.27;;;3.85;;
80725;SDS011;70113;59.928;10.878;2024-01-10T17:16:43;11.20;;;5.10;;
80725;SDS011;70113;59.928;10.878;2024-01-10T17:19:10;9.63;;;4.63;;
80725;SDS011;70113;59.928;10.878;2024-01-10T17:21:36;9.63;;;5.43;;
80725;SDS011;70113;59.928;10.878;2024-01-10T17:24:02;11.23;;;5.93;;
80725;SDS011;70113;59.928;10.878;2024-01-10T17:26:27;13.82;;;6.03;;
80725;SDS011;70113;59.928;10.878;2024-01-10T17:28:53;16.80;;;6.63;;
80725;SDS011;70113;59.928;10.878;2024-01-10T17:31:18;10.20;;;4.22;;
80725;SDS011;70113;59.928;10.878;2024-01-10T17:33:44;7.95;;;3.63;;
80725;SDS011;70113;59.928;10.878;2024-01-10T17:36:11;8.30;;;3.30;;
80725;SDS011;70113;59.928;10.878;2024-01-10T17:38:36;9.15;;;4.20;;
80725;SDS011;70113;59.928;10.878;2024-01-10T17:41:04;11.60;;;5.88;;
80725;SDS011;70113;59.928;10.878;2024-01-10T17:43:29;11.82;;;5.43;;
80725;SDS011;70113;59.928;10.878;2024-01-10T17:45:55;12.25;;;5.57;;
80725;SDS011;70113;59.928;10.878;2024-01-10T17:48:21;15.07;;;5.22;;
80725;SDS011;70113;59.928;10.878;2024-01-10T17:50:46;11.90;;;5.40;;
80725;SDS011;70113;59.928;10.878;2024-01-10T17:53:12;12.05;;;4.38;;
80725;SDS011;70113;59.928;10.878;2024-01-10T17:55:38;10.13;;;4.88;;